PWSweather.com
Personal Weather Stations
Station Observations
PICKERING
North Yorkshire, PickeringGB

North YorkshirePickeringGB

Lat: 54.2494, Lon: -0.7725

Elevation: 192

Station Type: Oregon Scientific WMR100

http://www.yorkshirewalker.co.uk/weather/

High Low Average
Temperature 48.9°F9.4°C 39.4°F4.1°C 42.4°F5.8°C
Dew Point 35.6°F2.0°C 26.6°F-3.0°C 31.2°F-0.4°C
Winds 10.4 mph 16.7 kmh 1.5 mph 2.4 kmh 6.0 mph NW9.7 kmh NW
Wind Gusts 18.1 mph29.1 kmh 2.0 mph3.2 kmh 11.0 mph17.7 kmh
Humidity 73% 55% 64%
Pressure 30.15 in1021.0 mb 29.95 in1014.2 mb -
Precipitation 0.00 in0.0 mm - -
Hour Temp Dew Point Humidity Winds Wind Gusts Pressure Precip Precip Rate Daily Precip Total
12:00 AM 44.6°F7.0°C 33.8°F1.0°C 65% 9.8 mph W15.8 kmh W 14.1 mph22.7 kmh 29.95 in1014.2 mb 0.00 in0.0 mm 0.00 in0.0 mm 0.00 in0.0 mm
12:05 AM 44.6°F7.0°C 33.8°F1.0°C 65% 9.4 mph WSW15.1 kmh WSW 14.1 mph22.7 kmh 29.95 in1014.2 mb 0.00 in0.0 mm 0.00 in0.0 mm 0.00 in0.0 mm
12:10 AM 44.6°F7.0°C 33.8°F1.0°C 65% 8.2 mph W13.2 kmh W 12.5 mph20.1 kmh 29.95 in1014.2 mb 0.00 in0.0 mm 0.00 in0.0 mm 0.00 in0.0 mm
12:15 AM 44.6°F7.0°C 33.8°F1.0°C 65% 7.8 mph WNW12.6 kmh WNW 13.2 mph21.2 kmh 29.95 in1014.2 mb 0.00 in0.0 mm 0.00 in0.0 mm 0.00 in0.0 mm
12:20 AM 44.6°F7.0°C 33.8°F1.0°C 65% 9.1 mph WNW14.6 kmh WNW 13.2 mph21.2 kmh 29.95 in1014.2 mb 0.00 in0.0 mm 0.00 in0.0 mm 0.00 in0.0 mm
12:25 AM 44.4°F6.9°C 33.8°F1.0°C 65% 8.9 mph WNW14.3 kmh WNW 12.3 mph19.8 kmh 29.95 in1014.2 mb 0.00 in0.0 mm 0.00 in0.0 mm 0.00 in0.0 mm
12:30 AM 44.4°F6.9°C 33.8°F1.0°C 66% 8.2 mph W13.2 kmh W 13.2 mph21.2 kmh 29.95 in1014.2 mb 0.00 in0.0 mm 0.00 in0.0 mm 0.00 in0.0 mm
12:35 AM 44.4°F6.9°C 33.8°F1.0°C 66% 9.3 mph W15.0 kmh W 13.2 mph21.2 kmh 29.95 in1014.2 mb 0.00 in0.0 mm 0.00 in0.0 mm 0.00 in0.0 mm
12:40 AM 44.2°F6.8°C 33.8°F1.0°C 66% 8.4 mph WNW13.5 kmh WNW 13.0 mph20.9 kmh 29.95 in1014.2 mb 0.00 in0.0 mm 0.00 in0.0 mm 0.00 in0.0 mm
12:45 AM 44.2°F6.8°C 33.8°F1.0°C 66% 6.8 mph WNW10.9 kmh WNW 13.0 mph20.9 kmh 29.95 in1014.2 mb 0.00 in0.0 mm 0.00 in0.0 mm 0.00 in0.0 mm
12:50 AM 44.2°F6.8°C 33.8°F1.0°C 66% 6.9 mph W11.1 kmh W 14.5 mph23.3 kmh 29.95 in1014.2 mb 0.00 in0.0 mm 0.00 in0.0 mm 0.00 in0.0 mm
12:55 AM 44.2°F6.8°C 33.8°F1.0°C 66% 8.7 mph W14.0 kmh W 14.5 mph23.3 kmh 29.95 in1014.2 mb 0.00 in0.0 mm 0.00 in0.0 mm 0.00 in0.0 mm
01:00 AM 44.2°F6.8°C 33.8°F1.0°C 66% 10.1 mph W16.3 kmh W 14.5 mph23.3 kmh 29.95 in1014.2 mb 0.00 in0.0 mm 0.00 in0.0 mm 0.00 in0.0 mm
01:05 AM 44.1°F6.7°C 33.8°F1.0°C 66% 7.9 mph W12.7 kmh W 14.1 mph22.7 kmh 29.95 in1014.2 mb 0.00 in0.0 mm 0.00 in0.0 mm 0.00 in0.0 mm
01:10 AM 44.2°F6.8°C 33.8°F1.0°C 66% 6.9 mph WNW11.1 kmh WNW 10.3 mph16.6 kmh 29.95 in1014.2 mb 0.00 in0.0 mm 0.00 in0.0 mm 0.00 in0.0 mm
01:15 AM 44.1°F6.7°C 33.8°F1.0°C 66% 8.9 mph WNW14.3 kmh WNW 13.2 mph21.2 kmh 29.95 in1014.2 mb 0.00 in0.0 mm 0.00 in0.0 mm 0.00 in0.0 mm
01:20 AM 44.2°F6.8°C 33.8°F1.0°C 66% 10.2 mph WNW16.4 kmh WNW 13.2 mph21.2 kmh 29.95 in1014.2 mb 0.00 in0.0 mm 0.00 in0.0 mm 0.00 in0.0 mm
01:25 AM 44.1°F6.7°C 33.8°F1.0°C 66% 10.3 mph W16.6 kmh W 14.3 mph23.0 kmh 29.98 in1015.2 mb 0.00 in0.0 mm 0.00 in0.0 mm 0.00 in0.0 mm
01:30 AM 43.9°F6.6°C 33.8°F1.0°C 66% 8.5 mph W13.7 kmh W 14.3 mph23.0 kmh 29.98 in1015.2 mb 0.00 in0.0 mm 0.00 in0.0 mm 0.00 in0.0 mm
01:35 AM 43.9°F6.6°C 33.8°F1.0°C 66% 7.5 mph W12.1 kmh W 13.4 mph21.6 kmh 29.98 in1015.2 mb 0.00 in0.0 mm 0.00 in0.0 mm 0.00 in0.0 mm
01:40 AM 43.9°F6.6°C 33.8°F1.0°C 67% 8.3 mph WNW13.4 kmh WNW 13.4 mph21.6 kmh 29.95 in1014.2 mb 0.00 in0.0 mm 0.00 in0.0 mm 0.00 in0.0 mm
01:45 AM 43.9°F6.6°C 33.8°F1.0°C 67% 9.1 mph W14.6 kmh W 14.1 mph22.7 kmh 29.95 in1014.2 mb 0.00 in0.0 mm 0.00 in0.0 mm 0.00 in0.0 mm
01:50 AM 44.1°F6.7°C 33.8°F1.0°C 67% 10.4 mph W16.7 kmh W 15.2 mph24.5 kmh 29.95 in1014.2 mb 0.00 in0.0 mm 0.00 in0.0 mm 0.00 in0.0 mm
01:55 AM 43.9°F6.6°C 33.8°F1.0°C 67% 9.7 mph WNW15.6 kmh WNW 15.2 mph24.5 kmh 29.98 in1015.2 mb 0.00 in0.0 mm 0.00 in0.0 mm 0.00 in0.0 mm
02:00 AM 43.7°F6.5°C 33.8°F1.0°C 67% 8.3 mph W13.4 kmh W 11.2 mph18.0 kmh 29.98 in1015.2 mb 0.00 in0.0 mm 0.00 in0.0 mm 0.00 in0.0 mm
02:05 AM 43.7°F6.5°C 33.8°F1.0°C 67% 6.5 mph W10.5 kmh W 8.5 mph13.7 kmh 29.98 in1015.2 mb 0.00 in0.0 mm 0.00 in0.0 mm 0.00 in0.0 mm
02:10 AM 43.7°F6.5°C 33.8°F1.0°C 67% 6.8 mph W10.9 kmh W 10.5 mph16.9 kmh 29.98 in1015.2 mb 0.00 in0.0 mm 0.00 in0.0 mm 0.00 in0.0 mm
02:15 AM 43.7°F6.5°C 33.8°F1.0°C 68% 8.0 mph W12.9 kmh W 10.7 mph17.2 kmh 29.98 in1015.2 mb 0.00 in0.0 mm 0.00 in0.0 mm 0.00 in0.0 mm
02:20 AM 43.7°F6.5°C 33.8°F1.0°C 68% 8.2 mph WNW13.2 kmh WNW 10.7 mph17.2 kmh 29.98 in1015.2 mb 0.00 in0.0 mm 0.00 in0.0 mm 0.00 in0.0 mm
02:25 AM 43.7°F6.5°C 33.8°F1.0°C 68% 9.4 mph NW15.1 kmh NW 15.4 mph24.8 kmh 29.98 in1015.2 mb 0.00 in0.0 mm 0.00 in0.0 mm 0.00 in0.0 mm
02:30 AM 43.7°F6.5°C 33.8°F1.0°C 68% 9.0 mph NW14.5 kmh NW 15.4 mph24.8 kmh 29.98 in1015.2 mb 0.00 in0.0 mm 0.00 in0.0 mm 0.00 in0.0 mm
02:35 AM 43.7°F6.5°C 33.8°F1.0°C 68% 7.1 mph W11.4 kmh W 10.1 mph16.3 kmh 29.98 in1015.2 mb 0.00 in0.0 mm 0.00 in0.0 mm 0.00 in0.0 mm
02:40 AM 43.7°F6.5°C 33.8°F1.0°C 68% 7.0 mph W11.3 kmh W 10.1 mph16.3 kmh 29.98 in1015.2 mb 0.00 in0.0 mm 0.00 in0.0 mm 0.00 in0.0 mm
02:45 AM 43.5°F6.4°C 33.8°F1.0°C 68% 7.9 mph W12.7 kmh W 11.0 mph17.7 kmh 29.98 in1015.2 mb 0.00 in0.0 mm 0.00 in0.0 mm 0.00 in0.0 mm
02:50 AM 43.9°F6.6°C 33.8°F1.0°C 68% 8.6 mph WSW13.8 kmh WSW 11.0 mph17.7 kmh 29.98 in1015.2 mb 0.00 in0.0 mm 0.00 in0.0 mm 0.00 in0.0 mm
02:55 AM 43.7°F6.5°C 33.8°F1.0°C 67% 7.7 mph W12.4 kmh W 10.5 mph16.9 kmh 29.98 in1015.2 mb 0.00 in0.0 mm 0.00 in0.0 mm 0.00 in0.0 mm
03:00 AM 43.5°F6.4°C 33.8°F1.0°C 68% 6.9 mph WNW11.1 kmh WNW 11.0 mph17.7 kmh 29.98 in1015.2 mb 0.00 in0.0 mm 0.00 in0.0 mm 0.00 in0.0 mm
03:05 AM 43.3°F6.3°C 33.8°F1.0°C 68% 7.3 mph WNW11.7 kmh WNW 11.0 mph17.7 kmh 29.98 in1015.2 mb 0.00 in0.0 mm 0.00 in0.0 mm 0.00 in0.0 mm
03:10 AM 43.3°F6.3°C 33.8°F1.0°C 68% 7.5 mph W12.1 kmh W 12.3 mph19.8 kmh 29.98 in1015.2 mb 0.00 in0.0 mm 0.00 in0.0 mm 0.00 in0.0 mm
03:15 AM 43.5°F6.4°C 33.8°F1.0°C 68% 9.2 mph W14.8 kmh W 15.2 mph24.5 kmh 29.98 in1015.2 mb 0.00 in0.0 mm 0.00 in0.0 mm 0.00 in0.0 mm
03:20 AM 43.5°F6.4°C 33.8°F1.0°C 67% 9.2 mph WNW14.8 kmh WNW 15.2 mph24.5 kmh 29.98 in1015.2 mb 0.00 in0.0 mm 0.00 in0.0 mm 0.00 in0.0 mm
03:25 AM 43.3°F6.3°C 33.8°F1.0°C 67% 9.0 mph WNW14.5 kmh WNW 13.0 mph20.9 kmh 29.98 in1015.2 mb 0.00 in0.0 mm 0.00 in0.0 mm 0.00 in0.0 mm
03:30 AM 43.3°F6.3°C 33.8°F1.0°C 67% 9.0 mph NW14.5 kmh NW 13.0 mph20.9 kmh 29.98 in1015.2 mb 0.00 in0.0 mm 0.00 in0.0 mm 0.00 in0.0 mm
03:35 AM 43.2°F6.2°C 33.8°F1.0°C 67% 7.3 mph NW11.7 kmh NW 13.0 mph20.9 kmh 29.98 in1015.2 mb 0.00 in0.0 mm 0.00 in0.0 mm 0.00 in0.0 mm
03:40 AM 43.0°F6.1°C 33.8°F1.0°C 68% 5.8 mph WNW9.3 kmh WNW 7.2 mph11.6 kmh 29.98 in1015.2 mb 0.00 in0.0 mm 0.00 in0.0 mm 0.00 in0.0 mm
03:45 AM 43.0°F6.1°C 33.8°F1.0°C 68% 5.9 mph WNW9.5 kmh WNW 8.5 mph13.7 kmh 29.98 in1015.2 mb 0.00 in0.0 mm 0.00 in0.0 mm 0.00 in0.0 mm
03:50 AM 43.0°F6.1°C 33.8°F1.0°C 68% 5.9 mph WNW9.5 kmh WNW 8.5 mph13.7 kmh 29.98 in1015.2 mb 0.00 in0.0 mm 0.00 in0.0 mm 0.00 in0.0 mm
03:55 AM 42.8°F6.0°C 33.8°F1.0°C 68% 6.1 mph NW9.8 kmh NW 10.1 mph16.3 kmh 29.98 in1015.2 mb 0.00 in0.0 mm 0.00 in0.0 mm 0.00 in0.0 mm
04:00 AM 42.8°F6.0°C 33.8°F1.0°C 68% 5.8 mph WNW9.3 kmh WNW 10.1 mph16.3 kmh 29.98 in1015.2 mb 0.00 in0.0 mm 0.00 in0.0 mm 0.00 in0.0 mm
04:05 AM 42.6°F5.9°C 33.8°F1.0°C 68% 5.0 mph W8.0 kmh W 6.5 mph10.5 kmh 29.98 in1015.2 mb 0.00 in0.0 mm 0.00 in0.0 mm 0.00 in0.0 mm
04:10 AM 42.4°F5.8°C 33.8°F1.0°C 68% 5.2 mph W8.4 kmh W 6.5 mph10.5 kmh 30.01 in1016.3 mb 0.00 in0.0 mm 0.00 in0.0 mm 0.00 in0.0 mm
04:15 AM 42.4°F5.8°C 33.8°F1.0°C 68% 5.5 mph W8.9 kmh W 9.4 mph15.1 kmh 30.01 in1016.3 mb 0.00 in0.0 mm 0.00 in0.0 mm 0.00 in0.0 mm
04:20 AM 42.4°F5.8°C 33.8°F1.0°C 68% 5.7 mph WNW9.2 kmh WNW 9.4 mph15.1 kmh 30.01 in1016.3 mb 0.00 in0.0 mm 0.00 in0.0 mm 0.00 in0.0 mm
04:25 AM 42.4°F5.8°C 33.8°F1.0°C 68% 4.3 mph WNW6.9 kmh WNW 8.1 mph13.0 kmh 30.01 in1016.3 mb 0.00 in0.0 mm 0.00 in0.0 mm 0.00 in0.0 mm
04:30 AM 42.3°F5.7°C 33.8°F1.0°C 68% 4.0 mph NW6.4 kmh NW 5.8 mph9.3 kmh 30.01 in1016.3 mb 0.00 in0.0 mm 0.00 in0.0 mm 0.00 in0.0 mm
04:35 AM 42.6°F5.9°C 33.8°F1.0°C 68% 5.5 mph NW8.9 kmh NW 10.3 mph16.6 kmh 30.01 in1016.3 mb 0.00 in0.0 mm 0.00 in0.0 mm 0.00 in0.0 mm
04:40 AM 42.8°F6.0°C 33.8°F1.0°C 68% 6.6 mph WNW10.6 kmh WNW 10.3 mph16.6 kmh 30.01 in1016.3 mb 0.00 in0.0 mm 0.00 in0.0 mm 0.00 in0.0 mm
04:45 AM 42.6°F5.9°C 33.8°F1.0°C 68% 6.8 mph WNW10.9 kmh WNW 10.3 mph16.6 kmh 30.01 in1016.3 mb 0.00 in0.0 mm 0.00 in0.0 mm 0.00 in0.0 mm
04:50 AM 42.6°F5.9°C 33.8°F1.0°C 68% 6.2 mph WNW10.0 kmh WNW 8.5 mph13.7 kmh 30.01 in1016.3 mb 0.00 in0.0 mm 0.00 in0.0 mm 0.00 in0.0 mm
04:55 AM 42.4°F5.8°C 33.8°F1.0°C 68% 5.4 mph WNW8.7 kmh WNW 7.6 mph12.2 kmh 30.01 in1016.3 mb 0.00 in0.0 mm 0.00 in0.0 mm 0.00 in0.0 mm
05:00 AM 42.4°F5.8°C 33.8°F1.0°C 68% 5.5 mph WNW8.9 kmh WNW 9.8 mph15.8 kmh 30.01 in1016.3 mb 0.00 in0.0 mm 0.00 in0.0 mm 0.00 in0.0 mm
05:05 AM 42.6°F5.9°C 33.8°F1.0°C 68% 6.6 mph WNW10.6 kmh WNW 10.5 mph16.9 kmh 30.01 in1016.3 mb 0.00 in0.0 mm 0.00 in0.0 mm 0.00 in0.0 mm
05:10 AM 42.6°F5.9°C 33.8°F1.0°C 68% 6.9 mph WNW11.1 kmh WNW 10.5 mph16.9 kmh 30.01 in1016.3 mb 0.00 in0.0 mm 0.00 in0.0 mm 0.00 in0.0 mm
05:15 AM 42.4°F5.8°C 33.8°F1.0°C 68% 6.3 mph W10.1 kmh W 10.5 mph16.9 kmh 30.01 in1016.3 mb 0.00 in0.0 mm 0.00 in0.0 mm 0.00 in0.0 mm
05:20 AM 42.3°F5.7°C 33.8°F1.0°C 68% 5.0 mph W8.0 kmh W 7.8 mph12.6 kmh 30.01 in1016.3 mb 0.00 in0.0 mm 0.00 in0.0 mm 0.00 in0.0 mm
05:25 AM 42.6°F5.9°C 33.8°F1.0°C 68% 4.7 mph WNW7.6 kmh WNW 6.7 mph10.8 kmh 30.01 in1016.3 mb 0.00 in0.0 mm 0.00 in0.0 mm 0.00 in0.0 mm
05:30 AM 42.4°F5.8°C 33.8°F1.0°C 67% 5.6 mph W9.0 kmh W 8.1 mph13.0 kmh 30.01 in1016.3 mb 0.00 in0.0 mm 0.00 in0.0 mm 0.00 in0.0 mm
05:35 AM 42.6°F5.9°C 33.8°F1.0°C 67% 6.6 mph W10.6 kmh W 9.6 mph15.4 kmh 30.01 in1016.3 mb 0.00 in0.0 mm 0.00 in0.0 mm 0.00 in0.0 mm
05:40 AM 42.4°F5.8°C 33.8°F1.0°C 67% 7.5 mph WNW12.1 kmh WNW 10.5 mph16.9 kmh 30.01 in1016.3 mb 0.00 in0.0 mm 0.00 in0.0 mm 0.00 in0.0 mm
05:45 AM 42.6°F5.9°C 33.8°F1.0°C 67% 7.3 mph WNW11.7 kmh WNW 11.0 mph17.7 kmh 30.01 in1016.3 mb 0.00 in0.0 mm 0.00 in0.0 mm 0.00 in0.0 mm
05:50 AM 42.6°F5.9°C 33.8°F1.0°C 67% 7.6 mph WNW12.2 kmh WNW 13.2 mph21.2 kmh 30.01 in1016.3 mb 0.00 in0.0 mm 0.00 in0.0 mm 0.00 in0.0 mm
05:55 AM 42.4°F5.8°C 33.8°F1.0°C 67% 7.5 mph NW12.1 kmh NW 13.2 mph21.2 kmh 30.04 in1017.3 mb 0.00 in0.0 mm 0.00 in0.0 mm 0.00 in0.0 mm
06:00 AM 42.6°F5.9°C 33.8°F1.0°C 67% 7.4 mph NW11.9 kmh NW 12.3 mph19.8 kmh 30.04 in1017.3 mb 0.00 in0.0 mm 0.00 in0.0 mm 0.00 in0.0 mm
06:05 AM 42.6°F5.9°C 32.0°F0.0°C 66% 7.4 mph NW11.9 kmh NW 12.3 mph19.8 kmh 30.04 in1017.3 mb 0.00 in0.0 mm 0.00 in0.0 mm 0.00 in0.0 mm
06:10 AM 42.4°F5.8°C 32.0°F0.0°C 66% 7.4 mph WNW11.9 kmh WNW 12.3 mph19.8 kmh 30.04 in1017.3 mb 0.00 in0.0 mm 0.00 in0.0 mm 0.00 in0.0 mm
06:15 AM 42.4°F5.8°C 32.0°F0.0°C 66% 6.9 mph NW11.1 kmh NW 10.1 mph16.3 kmh 30.04 in1017.3 mb 0.00 in0.0 mm 0.00 in0.0 mm 0.00 in0.0 mm
06:20 AM 42.4°F5.8°C 32.0°F0.0°C 66% 6.0 mph NW9.7 kmh NW 10.1 mph16.3 kmh 30.04 in1017.3 mb 0.00 in0.0 mm 0.00 in0.0 mm 0.00 in0.0 mm
06:25 AM 42.3°F5.7°C 32.0°F0.0°C 66% 6.2 mph NW10.0 kmh NW 11.4 mph18.3 kmh 30.01 in1016.3 mb 0.00 in0.0 mm 0.00 in0.0 mm 0.00 in0.0 mm
06:30 AM 42.6°F5.9°C 32.0°F0.0°C 66% 6.5 mph NW10.5 kmh NW 11.4 mph18.3 kmh 30.01 in1016.3 mb 0.00 in0.0 mm 0.00 in0.0 mm 0.00 in0.0 mm
06:35 AM 42.4°F5.8°C 32.0°F0.0°C 66% 5.6 mph NW9.0 kmh NW 8.7 mph14.0 kmh 30.01 in1016.3 mb 0.00 in0.0 mm 0.00 in0.0 mm 0.00 in0.0 mm
06:40 AM 42.4°F5.8°C 32.0°F0.0°C 66% 5.9 mph NW9.5 kmh NW 11.9 mph19.2 kmh 30.04 in1017.3 mb 0.00 in0.0 mm 0.00 in0.0 mm 0.00 in0.0 mm
06:45 AM 42.4°F5.8°C 32.0°F0.0°C 66% 6.6 mph WNW10.6 kmh WNW 12.8 mph20.6 kmh 30.04 in1017.3 mb 0.00 in0.0 mm 0.00 in0.0 mm 0.00 in0.0 mm
06:50 AM 42.4°F5.8°C 32.0°F0.0°C 66% 6.6 mph W10.6 kmh W 12.8 mph20.6 kmh 30.04 in1017.3 mb 0.00 in0.0 mm 0.00 in0.0 mm 0.00 in0.0 mm
06:55 AM 42.3°F5.7°C 32.0°F0.0°C 66% 7.1 mph W11.4 kmh W 17.2 mph27.7 kmh 30.04 in1017.3 mb 0.00 in0.0 mm 0.00 in0.0 mm 0.00 in0.0 mm
07:00 AM 42.4°F5.8°C 32.0°F0.0°C 66% 7.7 mph W12.4 kmh W 17.2 mph27.7 kmh 30.04 in1017.3 mb 0.00 in0.0 mm 0.00 in0.0 mm 0.00 in0.0 mm
07:05 AM 42.3°F5.7°C 32.0°F0.0°C 66% 6.6 mph WNW10.6 kmh WNW 9.6 mph15.4 kmh 30.04 in1017.3 mb 0.00 in0.0 mm 0.00 in0.0 mm 0.00 in0.0 mm
07:10 AM 42.4°F5.8°C 32.0°F0.0°C 66% 5.2 mph WNW8.4 kmh WNW 9.6 mph15.4 kmh 30.04 in1017.3 mb 0.00 in0.0 mm 0.00 in0.0 mm 0.00 in0.0 mm
07:15 AM 42.3°F5.7°C 32.0°F0.0°C 66% 4.2 mph WNW6.8 kmh WNW 6.3 mph10.1 kmh 30.04 in1017.3 mb 0.00 in0.0 mm 0.00 in0.0 mm 0.00 in0.0 mm
07:20 AM 42.1°F5.6°C 32.0°F0.0°C 66% 4.5 mph W7.2 kmh W 7.4 mph11.9 kmh 30.04 in1017.3 mb 0.00 in0.0 mm 0.00 in0.0 mm 0.00 in0.0 mm
07:25 AM 42.1°F5.6°C 32.0°F0.0°C 66% 5.2 mph W8.4 kmh W 9.6 mph15.4 kmh 30.04 in1017.3 mb 0.00 in0.0 mm 0.00 in0.0 mm 0.00 in0.0 mm
07:30 AM 41.9°F5.5°C 32.0°F0.0°C 66% 6.0 mph W9.7 kmh W 10.7 mph17.2 kmh 30.04 in1017.3 mb 0.00 in0.0 mm 0.00 in0.0 mm 0.00 in0.0 mm
07:35 AM 41.7°F5.4°C 32.0°F0.0°C 66% 6.4 mph WNW10.3 kmh WNW 10.7 mph17.2 kmh 30.04 in1017.3 mb 0.00 in0.0 mm 0.00 in0.0 mm 0.00 in0.0 mm
07:40 AM 41.7°F5.4°C 32.0°F0.0°C 66% 5.8 mph NW9.3 kmh NW 9.2 mph14.8 kmh 30.04 in1017.3 mb 0.00 in0.0 mm 0.00 in0.0 mm 0.00 in0.0 mm
07:45 AM 41.5°F5.3°C 32.0°F0.0°C 66% 6.1 mph NW9.8 kmh NW 10.5 mph16.9 kmh 30.04 in1017.3 mb 0.00 in0.0 mm 0.00 in0.0 mm 0.00 in0.0 mm
07:50 AM 41.5°F5.3°C 32.0°F0.0°C 66% 6.7 mph WNW10.8 kmh WNW 10.5 mph16.9 kmh 30.04 in1017.3 mb 0.00 in0.0 mm 0.00 in0.0 mm 0.00 in0.0 mm
07:55 AM 41.4°F5.2°C 30.2°F-1.0°C 66% 5.8 mph WNW9.3 kmh WNW 9.8 mph15.8 kmh 30.07 in1018.3 mb 0.00 in0.0 mm 0.00 in0.0 mm 0.00 in0.0 mm
08:00 AM 41.2°F5.1°C 30.2°F-1.0°C 66% 5.3 mph W8.5 kmh W 9.8 mph15.8 kmh 30.07 in1018.3 mb 0.00 in0.0 mm 0.00 in0.0 mm 0.00 in0.0 mm
08:05 AM 41.2°F5.1°C 30.2°F-1.0°C 66% 5.5 mph WNW8.9 kmh WNW 9.8 mph15.8 kmh 30.07 in1018.3 mb 0.00 in0.0 mm 0.00 in0.0 mm 0.00 in0.0 mm
08:10 AM 41.2°F5.1°C 30.2°F-1.0°C 66% 6.9 mph WNW11.1 kmh WNW 13.2 mph21.2 kmh 30.07 in1018.3 mb 0.00 in0.0 mm 0.00 in0.0 mm 0.00 in0.0 mm
08:15 AM 41.0°F5.0°C 30.2°F-1.0°C 66% 6.6 mph NW10.6 kmh NW 13.2 mph21.2 kmh 30.07 in1018.3 mb 0.00 in0.0 mm 0.00 in0.0 mm 0.00 in0.0 mm
08:20 AM 41.0°F5.0°C 30.2°F-1.0°C 66% 6.0 mph W9.7 kmh W 11.0 mph17.7 kmh 30.07 in1018.3 mb 0.00 in0.0 mm 0.00 in0.0 mm 0.00 in0.0 mm
08:25 AM 40.8°F4.9°C 30.2°F-1.0°C 66% 5.7 mph W9.2 kmh W 11.0 mph17.7 kmh 30.07 in1018.3 mb 0.00 in0.0 mm 0.00 in0.0 mm 0.00 in0.0 mm
08:30 AM 41.0°F5.0°C 30.2°F-1.0°C 66% 6.2 mph WNW10.0 kmh WNW 8.5 mph13.7 kmh 30.07 in1018.3 mb 0.00 in0.0 mm 0.00 in0.0 mm 0.00 in0.0 mm
08:35 AM 40.8°F4.9°C 30.2°F-1.0°C 66% 5.9 mph WNW9.5 kmh WNW 8.5 mph13.7 kmh 30.07 in1018.3 mb 0.00 in0.0 mm 0.00 in0.0 mm 0.00 in0.0 mm
08:40 AM 40.6°F4.8°C 30.2°F-1.0°C 66% 5.8 mph WNW9.3 kmh WNW 9.4 mph15.1 kmh 30.07 in1018.3 mb 0.00 in0.0 mm 0.00 in0.0 mm 0.00 in0.0 mm
08:45 AM 40.5°F4.7°C 30.2°F-1.0°C 66% 5.4 mph NW8.7 kmh NW 9.4 mph15.1 kmh 30.07 in1018.3 mb 0.00 in0.0 mm 0.00 in0.0 mm 0.00 in0.0 mm
08:50 AM 40.5°F4.7°C 30.2°F-1.0°C 66% 4.5 mph WNW7.2 kmh WNW 6.9 mph11.1 kmh 30.07 in1018.3 mb 0.00 in0.0 mm 0.00 in0.0 mm 0.00 in0.0 mm
08:55 AM 40.3°F4.6°C 30.2°F-1.0°C 66% 4.0 mph WNW6.4 kmh WNW 6.5 mph10.5 kmh 30.07 in1018.3 mb 0.00 in0.0 mm 0.00 in0.0 mm 0.00 in0.0 mm
09:00 AM 40.5°F4.7°C 30.2°F-1.0°C 66% 3.8 mph W6.1 kmh W 5.8 mph9.3 kmh 30.07 in1018.3 mb 0.00 in0.0 mm 0.00 in0.0 mm 0.00 in0.0 mm
09:05 AM 40.6°F4.8°C 30.2°F-1.0°C 66% 3.5 mph W5.6 kmh W 5.8 mph9.3 kmh 30.07 in1018.3 mb 0.00 in0.0 mm 0.00 in0.0 mm 0.00 in0.0 mm
09:10 AM 40.5°F4.7°C 30.2°F-1.0°C 66% 3.8 mph WNW6.1 kmh WNW 5.6 mph9.0 kmh 30.07 in1018.3 mb 0.00 in0.0 mm 0.00 in0.0 mm 0.00 in0.0 mm
09:15 AM 40.5°F4.7°C 30.2°F-1.0°C 67% 4.6 mph NW7.4 kmh NW 8.1 mph13.0 kmh 30.07 in1018.3 mb 0.00 in0.0 mm 0.00 in0.0 mm 0.00 in0.0 mm
09:20 AM 40.5°F4.7°C 30.2°F-1.0°C 67% 4.1 mph WNW6.6 kmh WNW 8.1 mph13.0 kmh 30.07 in1018.3 mb 0.00 in0.0 mm 0.00 in0.0 mm 0.00 in0.0 mm
09:25 AM 40.5°F4.7°C 30.2°F-1.0°C 67% 4.4 mph WNW7.1 kmh WNW 8.5 mph13.7 kmh 30.09 in1019.0 mb 0.00 in0.0 mm 0.00 in0.0 mm 0.00 in0.0 mm
09:30 AM 40.6°F4.8°C 30.2°F-1.0°C 67% 5.5 mph W8.9 kmh W 9.6 mph15.4 kmh 30.09 in1019.0 mb 0.00 in0.0 mm 0.00 in0.0 mm 0.00 in0.0 mm
09:35 AM 40.6°F4.8°C 30.2°F-1.0°C 66% 5.9 mph W9.5 kmh W 9.6 mph15.4 kmh 30.09 in1019.0 mb 0.00 in0.0 mm 0.00 in0.0 mm 0.00 in0.0 mm
09:40 AM 40.6°F4.8°C 30.2°F-1.0°C 66% 6.9 mph W11.1 kmh W 13.2 mph21.2 kmh 30.09 in1019.0 mb 0.00 in0.0 mm 0.00 in0.0 mm 0.00 in0.0 mm
09:45 AM 40.6°F4.8°C 30.2°F-1.0°C 66% 7.0 mph W11.3 kmh W 13.2 mph21.2 kmh 30.09 in1019.0 mb 0.00 in0.0 mm 0.00 in0.0 mm 0.00 in0.0 mm
09:50 AM 40.6°F4.8°C 30.2°F-1.0°C 66% 6.4 mph WNW10.3 kmh WNW 13.2 mph21.2 kmh 30.09 in1019.0 mb 0.00 in0.0 mm 0.00 in0.0 mm 0.00 in0.0 mm
09:55 AM 40.6°F4.8°C 30.2°F-1.0°C 66% 5.8 mph NW9.3 kmh NW 10.3 mph16.6 kmh 30.09 in1019.0 mb 0.00 in0.0 mm 0.00 in0.0 mm 0.00 in0.0 mm
10:00 AM 40.8°F4.9°C 30.2°F-1.0°C 66% 5.7 mph NW9.2 kmh NW 10.7 mph17.2 kmh 30.09 in1019.0 mb 0.00 in0.0 mm 0.00 in0.0 mm 0.00 in0.0 mm
10:05 AM 41.0°F5.0°C 30.2°F-1.0°C 66% 5.9 mph NW9.5 kmh NW 10.7 mph17.2 kmh 30.09 in1019.0 mb 0.00 in0.0 mm 0.00 in0.0 mm 0.00 in0.0 mm
10:10 AM 41.4°F5.2°C 30.2°F-1.0°C 66% 6.8 mph WNW10.9 kmh WNW 12.5 mph20.1 kmh 30.09 in1019.0 mb 0.00 in0.0 mm 0.00 in0.0 mm 0.00 in0.0 mm
10:15 AM 41.4°F5.2°C 30.2°F-1.0°C 66% 7.8 mph W12.6 kmh W 12.5 mph20.1 kmh 30.09 in1019.0 mb 0.00 in0.0 mm 0.00 in0.0 mm 0.00 in0.0 mm
10:20 AM 41.2°F5.1°C 30.2°F-1.0°C 65% 7.7 mph NW12.4 kmh NW 12.3 mph19.8 kmh 30.09 in1019.0 mb 0.00 in0.0 mm 0.00 in0.0 mm 0.00 in0.0 mm
10:25 AM 41.2°F5.1°C 30.2°F-1.0°C 65% 6.5 mph NW10.5 kmh NW 12.3 mph19.8 kmh 30.09 in1019.0 mb 0.00 in0.0 mm 0.00 in0.0 mm 0.00 in0.0 mm
10:30 AM 41.2°F5.1°C 30.2°F-1.0°C 65% 4.9 mph W7.9 kmh W 7.2 mph11.6 kmh 30.09 in1019.0 mb 0.00 in0.0 mm 0.00 in0.0 mm 0.00 in0.0 mm
10:35 AM 41.2°F5.1°C 30.2°F-1.0°C 66% 4.4 mph W7.1 kmh W 8.7 mph14.0 kmh 30.09 in1019.0 mb 0.00 in0.0 mm 0.00 in0.0 mm 0.00 in0.0 mm
10:40 AM 41.2°F5.1°C 30.2°F-1.0°C 66% 4.8 mph W7.7 kmh W 8.7 mph14.0 kmh 30.09 in1019.0 mb 0.00 in0.0 mm 0.00 in0.0 mm 0.00 in0.0 mm
10:45 AM 41.2°F5.1°C 30.2°F-1.0°C 66% 4.2 mph W6.8 kmh W 7.8 mph12.6 kmh 30.09 in1019.0 mb 0.00 in0.0 mm 0.00 in0.0 mm 0.00 in0.0 mm
10:50 AM 41.4°F5.2°C 30.2°F-1.0°C 66% 4.9 mph WNW7.9 kmh WNW 8.7 mph14.0 kmh 30.09 in1019.0 mb 0.00 in0.0 mm 0.00 in0.0 mm 0.00 in0.0 mm
10:55 AM 41.4°F5.2°C 30.2°F-1.0°C 66% 4.9 mph WNW7.9 kmh WNW 8.7 mph14.0 kmh 30.09 in1019.0 mb 0.00 in0.0 mm 0.00 in0.0 mm 0.00 in0.0 mm
11:00 AM 41.5°F5.3°C 32.0°F0.0°C 66% 4.1 mph W6.6 kmh W 6.0 mph9.7 kmh 30.09 in1019.0 mb 0.00 in0.0 mm 0.00 in0.0 mm 0.00 in0.0 mm
11:05 AM 41.7°F5.4°C 32.0°F0.0°C 66% 4.7 mph WNW7.6 kmh WNW 8.1 mph13.0 kmh 30.09 in1019.0 mb 0.00 in0.0 mm 0.00 in0.0 mm 0.00 in0.0 mm
11:10 AM 41.9°F5.5°C 32.0°F0.0°C 66% 4.8 mph WNW7.7 kmh WNW 8.1 mph13.0 kmh 30.09 in1019.0 mb 0.00 in0.0 mm 0.00 in0.0 mm 0.00 in0.0 mm
11:15 AM 42.1°F5.6°C 32.0°F0.0°C 66% 6.5 mph W10.5 kmh W 8.7 mph14.0 kmh 30.09 in1019.0 mb 0.00 in0.0 mm 0.00 in0.0 mm 0.00 in0.0 mm
11:20 AM 42.3°F5.7°C 32.0°F0.0°C 65% 6.8 mph WSW10.9 kmh WSW 9.8 mph15.8 kmh 30.09 in1019.0 mb 0.00 in0.0 mm 0.00 in0.0 mm 0.00 in0.0 mm
11:25 AM 42.3°F5.7°C 32.0°F0.0°C 65% 5.3 mph W8.5 kmh W 9.8 mph15.8 kmh 30.09 in1019.0 mb 0.00 in0.0 mm 0.00 in0.0 mm 0.00 in0.0 mm
11:30 AM 42.6°F5.9°C 32.0°F0.0°C 65% 4.5 mph W7.2 kmh W 7.8 mph12.6 kmh 30.09 in1019.0 mb 0.00 in0.0 mm 0.00 in0.0 mm 0.00 in0.0 mm
11:35 AM 43.2°F6.2°C 33.8°F1.0°C 65% 5.6 mph WNW9.0 kmh WNW 12.8 mph20.6 kmh 30.09 in1019.0 mb 0.00 in0.0 mm 0.00 in0.0 mm 0.00 in0.0 mm
11:40 AM 43.3°F6.3°C 33.8°F1.0°C 65% 5.8 mph NW9.3 kmh NW 12.8 mph20.6 kmh 30.09 in1019.0 mb 0.00 in0.0 mm 0.00 in0.0 mm 0.00 in0.0 mm
11:45 AM 43.7°F6.5°C 33.8°F1.0°C 64% 5.8 mph WNW9.3 kmh WNW 9.4 mph15.1 kmh 30.09 in1019.0 mb 0.00 in0.0 mm 0.00 in0.0 mm 0.00 in0.0 mm
11:50 AM 44.4°F6.9°C 33.8°F1.0°C 64% 6.0 mph NW9.7 kmh NW 10.5 mph16.9 kmh 30.09 in1019.0 mb 0.00 in0.0 mm 0.00 in0.0 mm 0.00 in0.0 mm
11:55 AM 45.5°F7.5°C 33.8°F1.0°C 63% 7.3 mph NW11.7 kmh NW 10.5 mph16.9 kmh 30.09 in1019.0 mb 0.00 in0.0 mm 0.00 in0.0 mm 0.00 in0.0 mm
12:00 PM 45.7°F7.6°C 33.8°F1.0°C 61% 8.9 mph WNW14.3 kmh WNW 12.5 mph20.1 kmh 30.09 in1019.0 mb 0.00 in0.0 mm 0.00 in0.0 mm 0.00 in0.0 mm
12:05 PM 46.4°F8.0°C 33.8°F1.0°C 61% 9.1 mph WNW14.6 kmh WNW 12.5 mph20.1 kmh 30.09 in1019.0 mb 0.00 in0.0 mm 0.00 in0.0 mm 0.00 in0.0 mm
12:10 PM 47.3°F8.5°C 35.6°F2.0°C 60% 9.1 mph NW14.6 kmh NW 12.3 mph19.8 kmh 30.09 in1019.0 mb 0.00 in0.0 mm 0.00 in0.0 mm 0.00 in0.0 mm
12:15 PM 47.7°F8.7°C 35.6°F2.0°C 60% 9.0 mph NW14.5 kmh NW 12.3 mph19.8 kmh 30.09 in1019.0 mb 0.00 in0.0 mm 0.00 in0.0 mm 0.00 in0.0 mm
12:20 PM 48.0°F8.9°C 35.6°F2.0°C 60% 6.6 mph NW10.6 kmh NW 10.1 mph16.3 kmh 30.09 in1019.0 mb 0.00 in0.0 mm 0.00 in0.0 mm 0.00 in0.0 mm
12:25 PM 48.2°F9.0°C 35.6°F2.0°C 59% 6.2 mph WNW10.0 kmh WNW 10.1 mph16.3 kmh 30.09 in1019.0 mb 0.00 in0.0 mm 0.00 in0.0 mm 0.00 in0.0 mm
12:30 PM 48.4°F9.1°C 33.8°F1.0°C 58% 7.5 mph WNW12.1 kmh WNW 13.2 mph21.2 kmh 30.09 in1019.0 mb 0.00 in0.0 mm 0.00 in0.0 mm 0.00 in0.0 mm
12:35 PM 48.7°F9.3°C 35.6°F2.0°C 58% 8.1 mph NW13.0 kmh NW 13.2 mph21.2 kmh 30.09 in1019.0 mb 0.00 in0.0 mm 0.00 in0.0 mm 0.00 in0.0 mm
12:40 PM 48.7°F9.3°C 33.8°F1.0°C 57% 7.3 mph NW11.7 kmh NW 12.3 mph19.8 kmh 30.09 in1019.0 mb 0.00 in0.0 mm 0.00 in0.0 mm 0.00 in0.0 mm
12:45 PM 48.7°F9.3°C 33.8°F1.0°C 56% 7.0 mph WNW11.3 kmh WNW 11.9 mph19.2 kmh 30.09 in1019.0 mb 0.00 in0.0 mm 0.00 in0.0 mm 0.00 in0.0 mm
12:50 PM 48.6°F9.2°C 33.8°F1.0°C 56% 8.0 mph W12.9 kmh W 12.3 mph19.8 kmh 30.09 in1019.0 mb 0.00 in0.0 mm 0.00 in0.0 mm 0.00 in0.0 mm
12:55 PM 48.9°F9.4°C 33.8°F1.0°C 57% 6.9 mph W11.1 kmh W 12.3 mph19.8 kmh 30.12 in1020.0 mb 0.00 in0.0 mm 0.00 in0.0 mm 0.00 in0.0 mm
01:00 PM 48.6°F9.2°C 33.8°F1.0°C 56% 6.9 mph NW11.1 kmh NW 13.9 mph22.4 kmh 30.12 in1020.0 mb 0.00 in0.0 mm 0.00 in0.0 mm 0.00 in0.0 mm
01:05 PM 48.6°F9.2°C 33.8°F1.0°C 56% 7.3 mph NW11.7 kmh NW 13.9 mph22.4 kmh 30.12 in1020.0 mb 0.00 in0.0 mm 0.00 in0.0 mm 0.00 in0.0 mm
01:10 PM 48.4°F9.1°C 33.8°F1.0°C 56% 7.4 mph WNW11.9 kmh WNW 13.2 mph21.2 kmh 30.09 in1019.0 mb 0.00 in0.0 mm 0.00 in0.0 mm 0.00 in0.0 mm
01:15 PM 47.7°F8.7°C 32.0°F0.0°C 55% 9.2 mph NW14.8 kmh NW 14.8 mph23.8 kmh 30.09 in1019.0 mb 0.00 in0.0 mm 0.00 in0.0 mm 0.00 in0.0 mm
01:20 PM 47.5°F8.6°C 32.0°F0.0°C 55% 10.3 mph NW16.6 kmh NW 18.1 mph29.1 kmh 30.09 in1019.0 mb 0.00 in0.0 mm 0.00 in0.0 mm 0.00 in0.0 mm
01:25 PM 46.9°F8.3°C 32.0°F0.0°C 55% 9.9 mph NW15.9 kmh NW 18.1 mph29.1 kmh 30.12 in1020.0 mb 0.00 in0.0 mm 0.00 in0.0 mm 0.00 in0.0 mm
01:30 PM 45.5°F7.5°C 30.2°F-1.0°C 55% 8.9 mph NW14.3 kmh NW 14.8 mph23.8 kmh 30.12 in1020.0 mb 0.00 in0.0 mm 0.00 in0.0 mm 0.00 in0.0 mm
01:35 PM 45.3°F7.4°C 30.2°F-1.0°C 55% 8.8 mph NW14.2 kmh NW 14.5 mph23.3 kmh 30.12 in1020.0 mb 0.00 in0.0 mm 0.00 in0.0 mm 0.00 in0.0 mm
01:40 PM 45.1°F7.3°C 30.2°F-1.0°C 55% 9.1 mph WNW14.6 kmh WNW 14.5 mph23.3 kmh 30.12 in1020.0 mb 0.00 in0.0 mm 0.00 in0.0 mm 0.00 in0.0 mm
01:45 PM 45.0°F7.2°C 30.2°F-1.0°C 56% 8.0 mph NW12.9 kmh NW 14.1 mph22.7 kmh 30.12 in1020.0 mb 0.00 in0.0 mm 0.00 in0.0 mm 0.00 in0.0 mm
01:50 PM 45.0°F7.2°C 30.2°F-1.0°C 56% 7.1 mph NW11.4 kmh NW 12.5 mph20.1 kmh 30.12 in1020.0 mb 0.00 in0.0 mm 0.00 in0.0 mm 0.00 in0.0 mm
01:55 PM 45.0°F7.2°C 30.2°F-1.0°C 56% 6.6 mph NW10.6 kmh NW 9.4 mph15.1 kmh 30.12 in1020.0 mb 0.00 in0.0 mm 0.00 in0.0 mm 0.00 in0.0 mm
02:00 PM 45.0°F7.2°C 30.2°F-1.0°C 56% 8.4 mph NW13.5 kmh NW 13.2 mph21.2 kmh 30.12 in1020.0 mb 0.00 in0.0 mm 0.00 in0.0 mm 0.00 in0.0 mm
02:05 PM 45.0°F7.2°C 30.2°F-1.0°C 56% 7.8 mph WNW12.6 kmh WNW 13.2 mph21.2 kmh 30.12 in1020.0 mb 0.00 in0.0 mm 0.00 in0.0 mm 0.00 in0.0 mm
02:10 PM 44.4°F6.9°C 30.2°F-1.0°C 56% 6.7 mph NW10.8 kmh NW 15.4 mph24.8 kmh 30.12 in1020.0 mb 0.00 in0.0 mm 0.00 in0.0 mm 0.00 in0.0 mm
02:15 PM 44.1°F6.7°C 30.2°F-1.0°C 56% 8.8 mph NNW14.2 kmh NNW 15.4 mph24.8 kmh 30.12 in1020.0 mb 0.00 in0.0 mm 0.00 in0.0 mm 0.00 in0.0 mm
02:20 PM 43.9°F6.6°C 30.2°F-1.0°C 56% 9.3 mph NW15.0 kmh NW 15.2 mph24.5 kmh 30.12 in1020.0 mb 0.00 in0.0 mm 0.00 in0.0 mm 0.00 in0.0 mm
02:25 PM 43.9°F6.6°C 30.2°F-1.0°C 56% 8.4 mph NW13.5 kmh NW 15.2 mph24.5 kmh 30.12 in1020.0 mb 0.00 in0.0 mm 0.00 in0.0 mm 0.00 in0.0 mm
02:30 PM 43.7°F6.5°C 30.2°F-1.0°C 56% 8.1 mph NW13.0 kmh NW 12.3 mph19.8 kmh 30.12 in1020.0 mb 0.00 in0.0 mm 0.00 in0.0 mm 0.00 in0.0 mm
02:35 PM 43.9°F6.6°C 30.2°F-1.0°C 56% 8.2 mph NW13.2 kmh NW 16.8 mph27.0 kmh 30.12 in1020.0 mb 0.00 in0.0 mm 0.00 in0.0 mm 0.00 in0.0 mm
02:40 PM 43.5°F6.4°C 28.4°F-2.0°C 55% 7.5 mph NW12.1 kmh NW 16.8 mph27.0 kmh 30.12 in1020.0 mb 0.00 in0.0 mm 0.00 in0.0 mm 0.00 in0.0 mm
02:45 PM 43.5°F6.4°C 28.4°F-2.0°C 55% 9.2 mph NW14.8 kmh NW 16.8 mph27.0 kmh 30.12 in1020.0 mb 0.00 in0.0 mm 0.00 in0.0 mm 0.00 in0.0 mm
02:50 PM 43.2°F6.2°C 28.4°F-2.0°C 55% 10.4 mph NW16.7 kmh NW 15.9 mph25.6 kmh 30.12 in1020.0 mb 0.00 in0.0 mm 0.00 in0.0 mm 0.00 in0.0 mm
02:55 PM 43.0°F6.1°C 28.4°F-2.0°C 55% 8.1 mph NNW13.0 kmh NNW 15.9 mph25.6 kmh 30.12 in1020.0 mb 0.00 in0.0 mm 0.00 in0.0 mm 0.00 in0.0 mm
03:00 PM 43.0°F6.1°C 28.4°F-2.0°C 56% 7.6 mph N12.2 kmh N 15.2 mph24.5 kmh 30.12 in1020.0 mb 0.00 in0.0 mm 0.00 in0.0 mm 0.00 in0.0 mm
03:05 PM 43.0°F6.1°C 28.4°F-2.0°C 55% 8.6 mph NW13.8 kmh NW 15.2 mph24.5 kmh 30.12 in1020.0 mb 0.00 in0.0 mm 0.00 in0.0 mm 0.00 in0.0 mm
03:10 PM 43.0°F6.1°C 28.4°F-2.0°C 55% 7.7 mph NW12.4 kmh NW 9.8 mph15.8 kmh 30.12 in1020.0 mb 0.00 in0.0 mm 0.00 in0.0 mm 0.00 in0.0 mm
03:15 PM 43.3°F6.3°C 28.4°F-2.0°C 55% 8.3 mph NNW13.4 kmh NNW 13.0 mph20.9 kmh 30.12 in1020.0 mb 0.00 in0.0 mm 0.00 in0.0 mm 0.00 in0.0 mm
03:20 PM 43.3°F6.3°C 28.4°F-2.0°C 55% 7.8 mph NNW12.6 kmh NNW 13.0 mph20.9 kmh 30.12 in1020.0 mb 0.00 in0.0 mm 0.00 in0.0 mm 0.00 in0.0 mm
03:25 PM 43.3°F6.3°C 28.4°F-2.0°C 55% 6.9 mph N11.1 kmh N 12.1 mph19.5 kmh 30.12 in1020.0 mb 0.00 in0.0 mm 0.00 in0.0 mm 0.00 in0.0 mm
03:30 PM 43.3°F6.3°C 28.4°F-2.0°C 55% 7.0 mph N11.3 kmh N 12.1 mph19.5 kmh 30.12 in1020.0 mb 0.00 in0.0 mm 0.00 in0.0 mm 0.00 in0.0 mm
03:35 PM 43.3°F6.3°C 28.4°F-2.0°C 55% 7.0 mph N11.3 kmh N 12.8 mph20.6 kmh 30.12 in1020.0 mb 0.00 in0.0 mm 0.00 in0.0 mm 0.00 in0.0 mm
03:40 PM 43.3°F6.3°C 28.4°F-2.0°C 55% 6.5 mph NNW10.5 kmh NNW 12.8 mph20.6 kmh 30.12 in1020.0 mb 0.00 in0.0 mm 0.00 in0.0 mm 0.00 in0.0 mm
03:45 PM 43.3°F6.3°C 28.4°F-2.0°C 55% 6.7 mph N10.8 kmh N 13.9 mph22.4 kmh 30.12 in1020.0 mb 0.00 in0.0 mm 0.00 in0.0 mm 0.00 in0.0 mm
03:50 PM 43.3°F6.3°C 28.4°F-2.0°C 55% 6.6 mph NNW10.6 kmh NNW 13.9 mph22.4 kmh 30.12 in1020.0 mb 0.00 in0.0 mm 0.00 in0.0 mm 0.00 in0.0 mm
03:55 PM 43.2°F6.2°C 28.4°F-2.0°C 55% 5.7 mph NW9.2 kmh NW 10.5 mph16.9 kmh 30.12 in1020.0 mb 0.00 in0.0 mm 0.00 in0.0 mm 0.00 in0.0 mm
04:00 PM 43.2°F6.2°C 28.4°F-2.0°C 55% 5.1 mph NNW8.2 kmh NNW 10.5 mph16.9 kmh 30.12 in1020.0 mb 0.00 in0.0 mm 0.00 in0.0 mm 0.00 in0.0 mm
04:05 PM 43.0°F6.1°C 28.4°F-2.0°C 55% 5.7 mph NNW9.2 kmh NNW 11.0 mph17.7 kmh 30.12 in1020.0 mb 0.00 in0.0 mm 0.00 in0.0 mm 0.00 in0.0 mm
04:10 PM 43.0°F6.1°C 28.4°F-2.0°C 55% 7.6 mph NNW12.2 kmh NNW 12.1 mph19.5 kmh 30.12 in1020.0 mb 0.00 in0.0 mm 0.00 in0.0 mm 0.00 in0.0 mm
04:15 PM 43.0°F6.1°C 28.4°F-2.0°C 55% 8.0 mph NNW12.9 kmh NNW 12.1 mph19.5 kmh 30.12 in1020.0 mb 0.00 in0.0 mm 0.00 in0.0 mm 0.00 in0.0 mm
04:20 PM 43.0°F6.1°C 28.4°F-2.0°C 55% 6.7 mph NW10.8 kmh NW 12.3 mph19.8 kmh 30.12 in1020.0 mb 0.00 in0.0 mm 0.00 in0.0 mm 0.00 in0.0 mm
04:25 PM 43.0°F6.1°C 28.4°F-2.0°C 55% 6.0 mph NW9.7 kmh NW 12.3 mph19.8 kmh 30.12 in1020.0 mb 0.00 in0.0 mm 0.00 in0.0 mm 0.00 in0.0 mm
04:30 PM 42.8°F6.0°C 28.4°F-2.0°C 55% 5.9 mph NW9.5 kmh NW 12.3 mph19.8 kmh 30.12 in1020.0 mb 0.00 in0.0 mm 0.00 in0.0 mm 0.00 in0.0 mm
04:35 PM 43.0°F6.1°C 28.4°F-2.0°C 55% 5.7 mph NNW9.2 kmh NNW 8.7 mph14.0 kmh 30.12 in1020.0 mb 0.00 in0.0 mm 0.00 in0.0 mm 0.00 in0.0 mm
04:40 PM 43.0°F6.1°C 28.4°F-2.0°C 55% 7.0 mph NNW11.3 kmh NNW 10.7 mph17.2 kmh 30.12 in1020.0 mb 0.00 in0.0 mm 0.00 in0.0 mm 0.00 in0.0 mm
04:45 PM 43.0°F6.1°C 28.4°F-2.0°C 55% 6.1 mph N9.8 kmh N 10.7 mph17.2 kmh 30.12 in1020.0 mb 0.00 in0.0 mm 0.00 in0.0 mm 0.00 in0.0 mm
04:50 PM 42.8°F6.0°C 28.4°F-2.0°C 55% 6.0 mph NNW9.7 kmh NNW 10.7 mph17.2 kmh 30.12 in1020.0 mb 0.00 in0.0 mm 0.00 in0.0 mm 0.00 in0.0 mm
04:55 PM 42.6°F5.9°C 28.4°F-2.0°C 55% 7.0 mph NW11.3 kmh NW 10.7 mph17.2 kmh 30.12 in1020.0 mb 0.00 in0.0 mm 0.00 in0.0 mm 0.00 in0.0 mm
05:00 PM 42.6°F5.9°C 28.4°F-2.0°C 55% 5.9 mph NW9.5 kmh NW 10.1 mph16.3 kmh 30.12 in1020.0 mb 0.00 in0.0 mm 0.00 in0.0 mm 0.00 in0.0 mm
05:05 PM 42.3°F5.7°C 28.4°F-2.0°C 56% 4.9 mph WNW7.9 kmh WNW 9.4 mph15.1 kmh 30.12 in1020.0 mb 0.00 in0.0 mm 0.00 in0.0 mm 0.00 in0.0 mm
05:10 PM 42.3°F5.7°C 28.4°F-2.0°C 56% 5.2 mph NW8.4 kmh NW 8.7 mph14.0 kmh 30.12 in1020.0 mb 0.00 in0.0 mm 0.00 in0.0 mm 0.00 in0.0 mm
05:15 PM 42.1°F5.6°C 28.4°F-2.0°C 56% 5.6 mph NW9.0 kmh NW 9.8 mph15.8 kmh 30.12 in1020.0 mb 0.00 in0.0 mm 0.00 in0.0 mm 0.00 in0.0 mm
05:20 PM 42.1°F5.6°C 28.4°F-2.0°C 56% 5.5 mph NW8.9 kmh NW 9.8 mph15.8 kmh 30.12 in1020.0 mb 0.00 in0.0 mm 0.00 in0.0 mm 0.00 in0.0 mm
05:25 PM 42.1°F5.6°C 28.4°F-2.0°C 56% 4.8 mph NW7.7 kmh NW 7.6 mph12.2 kmh 30.12 in1020.0 mb 0.00 in0.0 mm 0.00 in0.0 mm 0.00 in0.0 mm
05:30 PM 41.9°F5.5°C 28.4°F-2.0°C 56% 5.5 mph NW8.9 kmh NW 9.4 mph15.1 kmh 30.12 in1020.0 mb 0.00 in0.0 mm 0.00 in0.0 mm 0.00 in0.0 mm
05:35 PM 41.9°F5.5°C 28.4°F-2.0°C 56% 5.9 mph NW9.5 kmh NW 9.4 mph15.1 kmh 30.12 in1020.0 mb 0.00 in0.0 mm 0.00 in0.0 mm 0.00 in0.0 mm
05:40 PM 41.5°F5.3°C 26.6°F-3.0°C 56% 4.7 mph NW7.6 kmh NW 8.7 mph14.0 kmh 30.12 in1020.0 mb 0.00 in0.0 mm 0.00 in0.0 mm 0.00 in0.0 mm
05:45 PM 41.4°F5.2°C 26.6°F-3.0°C 57% 3.6 mph NW5.8 kmh NW 5.4 mph8.7 kmh 30.15 in1021.0 mb 0.00 in0.0 mm 0.00 in0.0 mm 0.00 in0.0 mm
05:50 PM 41.5°F5.3°C 28.4°F-2.0°C 57% 3.2 mph NW5.1 kmh NW 5.8 mph9.3 kmh 30.15 in1021.0 mb 0.00 in0.0 mm 0.00 in0.0 mm 0.00 in0.0 mm
05:55 PM 41.4°F5.2°C 26.6°F-3.0°C 57% 3.5 mph WNW5.6 kmh WNW 5.8 mph9.3 kmh 30.15 in1021.0 mb 0.00 in0.0 mm 0.00 in0.0 mm 0.00 in0.0 mm
06:00 PM 41.2°F5.1°C 26.6°F-3.0°C 57% 3.3 mph WSW5.3 kmh WSW 6.0 mph9.7 kmh 30.15 in1021.0 mb 0.00 in0.0 mm 0.00 in0.0 mm 0.00 in0.0 mm
06:05 PM 41.2°F5.1°C 28.4°F-2.0°C 58% 5.1 mph WSW8.2 kmh WSW 13.9 mph22.4 kmh 30.15 in1021.0 mb 0.00 in0.0 mm 0.00 in0.0 mm 0.00 in0.0 mm
06:10 PM 41.2°F5.1°C 28.4°F-2.0°C 58% 6.6 mph W10.6 kmh W 13.9 mph22.4 kmh 30.15 in1021.0 mb 0.00 in0.0 mm 0.00 in0.0 mm 0.00 in0.0 mm
06:15 PM 41.0°F5.0°C 28.4°F-2.0°C 58% 4.9 mph W7.9 kmh W 10.7 mph17.2 kmh 30.15 in1021.0 mb 0.00 in0.0 mm 0.00 in0.0 mm 0.00 in0.0 mm
06:20 PM 40.6°F4.8°C 26.6°F-3.0°C 59% 2.5 mph W4.0 kmh W 4.0 mph6.4 kmh 30.15 in1021.0 mb 0.00 in0.0 mm 0.00 in0.0 mm 0.00 in0.0 mm
06:25 PM 40.6°F4.8°C 26.6°F-3.0°C 59% 3.0 mph WSW4.8 kmh WSW 5.8 mph9.3 kmh 30.15 in1021.0 mb 0.00 in0.0 mm 0.00 in0.0 mm 0.00 in0.0 mm
06:30 PM 40.8°F4.9°C 28.4°F-2.0°C 59% 4.4 mph WNW7.1 kmh WNW 8.1 mph13.0 kmh 30.15 in1021.0 mb 0.00 in0.0 mm 0.00 in0.0 mm 0.00 in0.0 mm
06:35 PM 41.0°F5.0°C 28.4°F-2.0°C 59% 5.5 mph WNW8.9 kmh WNW 8.1 mph13.0 kmh 30.15 in1021.0 mb 0.00 in0.0 mm 0.00 in0.0 mm 0.00 in0.0 mm
06:40 PM 41.0°F5.0°C 28.4°F-2.0°C 59% 4.4 mph WNW7.1 kmh WNW 8.1 mph13.0 kmh 30.15 in1021.0 mb 0.00 in0.0 mm 0.00 in0.0 mm 0.00 in0.0 mm
06:45 PM 41.0°F5.0°C 28.4°F-2.0°C 60% 4.5 mph NW7.2 kmh NW 8.1 mph13.0 kmh 30.15 in1021.0 mb 0.00 in0.0 mm 0.00 in0.0 mm 0.00 in0.0 mm
06:50 PM 41.0°F5.0°C 28.4°F-2.0°C 60% 4.2 mph NW6.8 kmh NW 7.8 mph12.6 kmh 30.15 in1021.0 mb 0.00 in0.0 mm 0.00 in0.0 mm 0.00 in0.0 mm
06:55 PM 41.0°F5.0°C 28.4°F-2.0°C 60% 3.3 mph NNW5.3 kmh NNW 7.6 mph12.2 kmh 30.15 in1021.0 mb 0.00 in0.0 mm 0.00 in0.0 mm 0.00 in0.0 mm
07:00 PM 40.8°F4.9°C 28.4°F-2.0°C 60% 3.8 mph NW6.1 kmh NW 5.8 mph9.3 kmh 30.15 in1021.0 mb 0.00 in0.0 mm 0.00 in0.0 mm 0.00 in0.0 mm
07:05 PM 40.6°F4.8°C 28.4°F-2.0°C 60% 4.4 mph NW7.1 kmh NW 6.9 mph11.1 kmh 30.15 in1021.0 mb 0.00 in0.0 mm 0.00 in0.0 mm 0.00 in0.0 mm
07:10 PM 40.8°F4.9°C 28.4°F-2.0°C 60% 4.4 mph NW7.1 kmh NW 6.9 mph11.1 kmh 30.15 in1021.0 mb 0.00 in0.0 mm 0.00 in0.0 mm 0.00 in0.0 mm
07:15 PM 41.0°F5.0°C 28.4°F-2.0°C 60% 4.7 mph NNW7.6 kmh NNW 9.4 mph15.1 kmh 30.15 in1021.0 mb 0.00 in0.0 mm 0.00 in0.0 mm 0.00 in0.0 mm
07:20 PM 40.6°F4.8°C 28.4°F-2.0°C 60% 3.7 mph NNW6.0 kmh NNW 9.4 mph15.1 kmh 30.15 in1021.0 mb 0.00 in0.0 mm 0.00 in0.0 mm 0.00 in0.0 mm
07:25 PM 40.6°F4.8°C 28.4°F-2.0°C 60% 2.8 mph N4.5 kmh N 5.8 mph9.3 kmh 30.15 in1021.0 mb 0.00 in0.0 mm 0.00 in0.0 mm 0.00 in0.0 mm
07:30 PM 40.3°F4.6°C 28.4°F-2.0°C 61% 2.8 mph N4.5 kmh N 3.8 mph6.1 kmh 30.15 in1021.0 mb 0.00 in0.0 mm 0.00 in0.0 mm 0.00 in0.0 mm
07:35 PM 40.6°F4.8°C 28.4°F-2.0°C 61% 2.8 mph W4.5 kmh W 4.0 mph6.4 kmh 30.15 in1021.0 mb 0.00 in0.0 mm 0.00 in0.0 mm 0.00 in0.0 mm
07:40 PM 40.5°F4.7°C 28.4°F-2.0°C 61% 2.6 mph WSW4.2 kmh WSW 4.0 mph6.4 kmh 30.15 in1021.0 mb 0.00 in0.0 mm 0.00 in0.0 mm 0.00 in0.0 mm
07:45 PM 40.5°F4.7°C 28.4°F-2.0°C 61% 1.9 mph WSW3.1 kmh WSW 2.9 mph4.7 kmh 30.15 in1021.0 mb 0.00 in0.0 mm 0.00 in0.0 mm 0.00 in0.0 mm
07:50 PM 40.5°F4.7°C 28.4°F-2.0°C 61% 1.5 mph W2.4 kmh W 2.0 mph3.2 kmh 30.15 in1021.0 mb 0.00 in0.0 mm 0.00 in0.0 mm 0.00 in0.0 mm
07:55 PM 40.5°F4.7°C 28.4°F-2.0°C 61% 1.7 mph NW2.7 kmh NW 2.7 mph4.3 kmh 30.15 in1021.0 mb 0.00 in0.0 mm 0.00 in0.0 mm 0.00 in0.0 mm
08:00 PM 40.6°F4.8°C 28.4°F-2.0°C 62% 3.3 mph N5.3 kmh N 7.8 mph12.6 kmh 30.15 in1021.0 mb 0.00 in0.0 mm 0.00 in0.0 mm 0.00 in0.0 mm
08:05 PM 40.6°F4.8°C 28.4°F-2.0°C 63% 5.3 mph NNW8.5 kmh NNW 7.8 mph12.6 kmh 30.15 in1021.0 mb 0.00 in0.0 mm 0.00 in0.0 mm 0.00 in0.0 mm
08:10 PM 40.3°F4.6°C 30.2°F-1.0°C 65% 5.7 mph NW9.2 kmh NW 9.8 mph15.8 kmh 30.15 in1021.0 mb 0.00 in0.0 mm 0.00 in0.0 mm 0.00 in0.0 mm
08:15 PM 40.1°F4.5°C 30.2°F-1.0°C 66% 6.0 mph NW9.7 kmh NW 9.8 mph15.8 kmh 30.15 in1021.0 mb 0.00 in0.0 mm 0.00 in0.0 mm 0.00 in0.0 mm
08:20 PM 39.9°F4.4°C 30.2°F-1.0°C 66% 6.8 mph NW10.9 kmh NW 10.1 mph16.3 kmh 30.15 in1021.0 mb 0.00 in0.0 mm 0.00 in0.0 mm 0.00 in0.0 mm
08:25 PM 40.1°F4.5°C 30.2°F-1.0°C 67% 7.0 mph NW11.3 kmh NW 11.0 mph17.7 kmh 30.15 in1021.0 mb 0.00 in0.0 mm 0.00 in0.0 mm 0.00 in0.0 mm
08:30 PM 40.1°F4.5°C 30.2°F-1.0°C 67% 6.0 mph NW9.7 kmh NW 11.0 mph17.7 kmh 30.15 in1021.0 mb 0.00 in0.0 mm 0.00 in0.0 mm 0.00 in0.0 mm
08:35 PM 39.9°F4.4°C 30.2°F-1.0°C 67% 5.1 mph NW8.2 kmh NW 10.7 mph17.2 kmh 30.15 in1021.0 mb 0.00 in0.0 mm 0.00 in0.0 mm 0.00 in0.0 mm
08:40 PM 39.9°F4.4°C 30.2°F-1.0°C 68% 4.5 mph NW7.2 kmh NW 6.5 mph10.5 kmh 30.15 in1021.0 mb 0.00 in0.0 mm 0.00 in0.0 mm 0.00 in0.0 mm
08:45 PM 40.3°F4.6°C 30.2°F-1.0°C 67% 4.2 mph NNW6.8 kmh NNW 6.5 mph10.5 kmh 30.15 in1021.0 mb 0.00 in0.0 mm 0.00 in0.0 mm 0.00 in0.0 mm
08:50 PM 40.5°F4.7°C 30.2°F-1.0°C 68% 4.8 mph NW7.7 kmh NW 9.6 mph15.4 kmh 30.15 in1021.0 mb 0.00 in0.0 mm 0.00 in0.0 mm 0.00 in0.0 mm
08:55 PM 40.6°F4.8°C 30.2°F-1.0°C 68% 5.5 mph NW8.9 kmh NW 10.3 mph16.6 kmh 30.15 in1021.0 mb 0.00 in0.0 mm 0.00 in0.0 mm 0.00 in0.0 mm
09:00 PM 40.8°F4.9°C 32.0°F0.0°C 68% 5.6 mph NW9.0 kmh NW 10.3 mph16.6 kmh 30.15 in1021.0 mb 0.00 in0.0 mm 0.00 in0.0 mm 0.00 in0.0 mm
09:05 PM 41.0°F5.0°C 32.0°F0.0°C 68% 6.3 mph NW10.1 kmh NW 10.7 mph17.2 kmh 30.15 in1021.0 mb 0.00 in0.0 mm 0.00 in0.0 mm 0.00 in0.0 mm
09:10 PM 40.6°F4.8°C 30.2°F-1.0°C 68% 6.3 mph NW10.1 kmh NW 10.7 mph17.2 kmh 30.15 in1021.0 mb 0.00 in0.0 mm 0.00 in0.0 mm 0.00 in0.0 mm
09:15 PM 40.3°F4.6°C 30.2°F-1.0°C 68% 4.1 mph NNW6.6 kmh NNW 10.5 mph16.9 kmh 30.15 in1021.0 mb 0.00 in0.0 mm 0.00 in0.0 mm 0.00 in0.0 mm
09:20 PM 40.3°F4.6°C 30.2°F-1.0°C 68% 3.0 mph NNW4.8 kmh NNW 5.6 mph9.0 kmh 30.15 in1021.0 mb 0.00 in0.0 mm 0.00 in0.0 mm 0.00 in0.0 mm
09:25 PM 40.5°F4.7°C 30.2°F-1.0°C 68% 4.8 mph NNW7.7 kmh NNW 8.7 mph14.0 kmh 30.15 in1021.0 mb 0.00 in0.0 mm 0.00 in0.0 mm 0.00 in0.0 mm
09:30 PM 40.5°F4.7°C 30.2°F-1.0°C 68% 6.4 mph NNW10.3 kmh NNW 10.1 mph16.3 kmh 30.15 in1021.0 mb 0.00 in0.0 mm 0.00 in0.0 mm 0.00 in0.0 mm
09:35 PM 40.6°F4.8°C 30.2°F-1.0°C 67% 6.1 mph NNW9.8 kmh NNW 10.1 mph16.3 kmh 30.15 in1021.0 mb 0.00 in0.0 mm 0.00 in0.0 mm 0.00 in0.0 mm
09:40 PM 41.0°F5.0°C 32.0°F0.0°C 67% 6.2 mph NW10.0 kmh NW 9.8 mph15.8 kmh 30.15 in1021.0 mb 0.00 in0.0 mm 0.00 in0.0 mm 0.00 in0.0 mm
09:45 PM 40.6°F4.8°C 30.2°F-1.0°C 67% 5.8 mph NW9.3 kmh NW 9.8 mph15.8 kmh 30.15 in1021.0 mb 0.00 in0.0 mm 0.00 in0.0 mm 0.00 in0.0 mm
09:50 PM 40.3°F4.6°C 30.2°F-1.0°C 68% 5.9 mph WNW9.5 kmh WNW 8.7 mph14.0 kmh 30.15 in1021.0 mb 0.00 in0.0 mm 0.00 in0.0 mm 0.00 in0.0 mm
09:55 PM 39.9°F4.4°C 30.2°F-1.0°C 68% 6.3 mph WNW10.1 kmh WNW 8.7 mph14.0 kmh 30.15 in1021.0 mb 0.00 in0.0 mm 0.00 in0.0 mm 0.00 in0.0 mm
10:00 PM 39.9°F4.4°C 30.2°F-1.0°C 69% 6.7 mph NW10.8 kmh NW 8.7 mph14.0 kmh 30.15 in1021.0 mb 0.00 in0.0 mm 0.00 in0.0 mm 0.00 in0.0 mm
10:05 PM 39.7°F4.3°C 30.2°F-1.0°C 69% 6.9 mph NW11.1 kmh NW 8.7 mph14.0 kmh 30.15 in1021.0 mb 0.00 in0.0 mm 0.00 in0.0 mm 0.00 in0.0 mm
10:10 PM 39.9°F4.4°C 30.2°F-1.0°C 69% 6.4 mph NW10.3 kmh NW 8.7 mph14.0 kmh 30.15 in1021.0 mb 0.00 in0.0 mm 0.00 in0.0 mm 0.00 in0.0 mm
10:15 PM 39.7°F4.3°C 30.2°F-1.0°C 70% 5.4 mph NW8.7 kmh NW 8.7 mph14.0 kmh 30.15 in1021.0 mb 0.00 in0.0 mm 0.00 in0.0 mm 0.00 in0.0 mm
10:20 PM 39.9°F4.4°C 30.2°F-1.0°C 70% 5.7 mph NW9.2 kmh NW 8.7 mph14.0 kmh 30.15 in1021.0 mb 0.00 in0.0 mm 0.00 in0.0 mm 0.00 in0.0 mm
10:25 PM 39.9°F4.4°C 30.2°F-1.0°C 70% 5.4 mph NW8.7 kmh NW 8.7 mph14.0 kmh 30.15 in1021.0 mb 0.00 in0.0 mm 0.00 in0.0 mm 0.00 in0.0 mm
10:30 PM 40.3°F4.6°C 32.0°F0.0°C 70% 4.1 mph WNW6.6 kmh WNW 7.4 mph11.9 kmh 30.15 in1021.0 mb 0.00 in0.0 mm 0.00 in0.0 mm 0.00 in0.0 mm
10:35 PM 40.3°F4.6°C 32.0°F0.0°C 70% 4.3 mph NW6.9 kmh NW 7.4 mph11.9 kmh 30.15 in1021.0 mb 0.00 in0.0 mm 0.00 in0.0 mm 0.00 in0.0 mm
10:40 PM 39.7°F4.3°C 32.0°F0.0°C 72% 4.4 mph NNW7.1 kmh NNW 7.4 mph11.9 kmh 30.15 in1021.0 mb 0.00 in0.0 mm 0.00 in0.0 mm 0.00 in0.0 mm
10:45 PM 39.6°F4.2°C 32.0°F0.0°C 72% 4.7 mph N7.6 kmh N 7.6 mph12.2 kmh 30.15 in1021.0 mb 0.00 in0.0 mm 0.00 in0.0 mm 0.00 in0.0 mm
10:50 PM 39.6°F4.2°C 32.0°F0.0°C 73% 5.4 mph NNW8.7 kmh NNW 9.4 mph15.1 kmh 30.15 in1021.0 mb 0.00 in0.0 mm 0.00 in0.0 mm 0.00 in0.0 mm
10:55 PM 39.6°F4.2°C 32.0°F0.0°C 72% 6.6 mph NNW10.6 kmh NNW 12.1 mph19.5 kmh 30.15 in1021.0 mb 0.00 in0.0 mm 0.00 in0.0 mm 0.00 in0.0 mm
11:00 PM 39.7°F4.3°C 32.0°F0.0°C 72% 7.0 mph NW11.3 kmh NW 12.1 mph19.5 kmh 30.15 in1021.0 mb 0.00 in0.0 mm 0.00 in0.0 mm 0.00 in0.0 mm
11:05 PM 39.6°F4.2°C 32.0°F0.0°C 72% 7.6 mph NNW12.2 kmh NNW 12.3 mph19.8 kmh 30.15 in1021.0 mb 0.00 in0.0 mm 0.00 in0.0 mm 0.00 in0.0 mm
11:10 PM 39.9°F4.4°C 32.0°F0.0°C 71% 8.3 mph NNW13.4 kmh NNW 12.3 mph19.8 kmh 30.15 in1021.0 mb 0.00 in0.0 mm 0.00 in0.0 mm 0.00 in0.0 mm
11:15 PM 39.9°F4.4°C 30.2°F-1.0°C 70% 6.5 mph NNW10.5 kmh NNW 12.3 mph19.8 kmh 30.15 in1021.0 mb 0.00 in0.0 mm 0.00 in0.0 mm 0.00 in0.0 mm
11:20 PM 40.1°F4.5°C 30.2°F-1.0°C 69% 5.3 mph N8.5 kmh N 8.7 mph14.0 kmh 30.15 in1021.0 mb 0.00 in0.0 mm 0.00 in0.0 mm 0.00 in0.0 mm
11:25 PM 40.3°F4.6°C 30.2°F-1.0°C 69% 5.5 mph N8.9 kmh N 8.7 mph14.0 kmh 30.15 in1021.0 mb 0.00 in0.0 mm 0.00 in0.0 mm 0.00 in0.0 mm
11:30 PM 39.9°F4.4°C 30.2°F-1.0°C 69% 5.4 mph N8.7 kmh N 10.5 mph16.9 kmh 30.15 in1021.0 mb 0.00 in0.0 mm 0.00 in0.0 mm 0.00 in0.0 mm
11:35 PM 39.7°F4.3°C 30.2°F-1.0°C 68% 7.3 mph NNW11.7 kmh NNW 11.2 mph18.0 kmh 30.15 in1021.0 mb 0.00 in0.0 mm 0.00 in0.0 mm 0.00 in0.0 mm
11:40 PM 39.6°F4.2°C 30.2°F-1.0°C 68% 7.7 mph NW12.4 kmh NW 11.2 mph18.0 kmh 30.15 in1021.0 mb 0.00 in0.0 mm 0.00 in0.0 mm 0.00 in0.0 mm
11:45 PM 39.4°F4.1°C 30.2°F-1.0°C 67% 6.9 mph NNW11.1 kmh NNW 8.7 mph14.0 kmh 30.15 in1021.0 mb 0.00 in0.0 mm 0.00 in0.0 mm 0.00 in0.0 mm
11:50 PM 39.6°F4.2°C 30.2°F-1.0°C 67% 7.0 mph NNW11.3 kmh NNW 13.0 mph20.9 kmh 30.15 in1021.0 mb 0.00 in0.0 mm 0.00 in0.0 mm 0.00 in0.0 mm
11:55 PM 39.7°F4.3°C 30.2°F-1.0°C 67% 7.1 mph NNW11.4 kmh NNW 13.0 mph20.9 kmh 30.15 in1021.0 mb 0.00 in0.0 mm 0.00 in0.0 mm 0.00 in0.0 mm